createdAt,value
2019-01-10T00:01:01.970Z,74.17
2019-01-10T00:03:30.494Z,74.06
2019-01-10T00:06:00.258Z,73.92
2019-01-10T00:08:28.814Z,74.48
2019-01-10T00:10:57.640Z,75.22
2019-01-10T00:13:26.518Z,74.31
2019-01-10T00:16:04.803Z,75.10
2019-01-10T00:18:34.182Z,74.92
2019-01-10T00:21:02.723Z,74.97
2019-01-10T00:23:31.300Z,75.23
2019-01-10T00:25:59.745Z,74.07
2019-01-10T00:28:28.159Z,74.42
2019-01-10T00:30:56.627Z,74.00
2019-01-10T00:33:25.255Z,74.02
2019-01-10T00:35:53.981Z,74.44
2019-01-10T00:38:22.495Z,73.40
2019-01-10T00:40:51.010Z,73.89
2019-01-10T00:43:19.409Z,73.36
2019-01-10T00:45:47.864Z,73.66
2019-01-10T00:48:16.284Z,73.87
2019-01-10T00:50:44.678Z,74.26
2019-01-10T00:53:13.462Z,73.94
2019-01-10T00:55:41.912Z,73.58
2019-01-10T00:58:10.815Z,74.54
2019-01-10T01:00:39.336Z,73.71
2019-01-10T01:03:07.759Z,74.11
2019-01-10T01:05:36.214Z,73.26
2019-01-10T01:08:04.996Z,73.49
2019-01-10T01:10:33.452Z,73.51
2019-01-10T01:13:01.940Z,73.76
2019-01-10T01:15:30.321Z,73.84
2019-01-10T01:17:58.672Z,73.32
2019-01-10T01:20:27.096Z,73.66
2019-01-10T01:22:55.485Z,73.62
2019-01-10T01:25:23.969Z,74.55
2019-01-10T01:27:52.409Z,73.69
2019-01-10T01:30:23.116Z,73.36
2019-01-10T01:32:51.565Z,73.27
2019-01-10T01:35:21.662Z,73.47
2019-01-10T01:37:50.289Z,73.57
2019-01-10T01:40:20.239Z,72.93
2019-01-10T01:42:48.880Z,73.44
2019-01-10T01:45:18.871Z,73.75
2019-01-10T01:47:47.738Z,73.85
2019-01-10T01:50:21.328Z,73.40
2019-01-10T01:52:49.782Z,74.06
2019-01-10T01:55:18.195Z,73.59
2019-01-10T01:57:46.724Z,74.33
2019-01-10T02:00:18.229Z,73.99
2019-01-10T02:02:46.612Z,73.27
2019-01-10T02:05:15.330Z,73.67
2019-01-10T02:07:43.851Z,73.69
2019-01-10T02:10:15.540Z,73.15
2019-01-10T02:12:44.059Z,74.00
2019-01-10T02:15:14.305Z,73.49
2019-01-10T02:17:48.831Z,73.26
2019-01-10T02:20:13.175Z,73.29
2019-01-10T02:22:41.697Z,74.13
2019-01-10T02:25:12.111Z,74.43
2019-01-10T02:27:40.634Z,74.16
2019-01-10T02:30:15.249Z,74.27
2019-01-10T02:32:43.694Z,73.47
2019-01-10T02:35:12.128Z,74.12
2019-01-10T02:37:40.532Z,73.80
2019-01-10T02:40:09.860Z,74.10
2019-01-10T02:42:38.306Z,74.06
2019-01-10T02:45:10.275Z,74.13
2019-01-10T02:47:38.615Z,74.88
2019-01-10T02:50:13.168Z,74.82
2019-01-10T02:52:41.601Z,74.75
2019-01-10T02:55:10.409Z,74.25
2019-01-10T02:57:38.826Z,74.32
2019-01-10T03:00:19.322Z,74.27
2019-01-10T03:02:48.023Z,74.36
2019-01-10T03:05:16.538Z,75.79
2019-01-10T03:07:44.949Z,74.98
2019-01-10T03:10:16.507Z,74.71
2019-01-10T03:12:44.925Z,74.81
2019-01-10T03:15:13.484Z,75.96
2019-01-10T03:17:41.976Z,75.98
2019-01-10T03:20:13.985Z,76.38
2019-01-10T03:22:42.495Z,76.98
2019-01-10T03:25:10.920Z,76.56
2019-01-10T03:27:39.360Z,75.84
2019-01-10T03:30:11.225Z,76.53
2019-01-10T03:32:39.596Z,76.11
2019-01-10T03:35:09.625Z,76.07
2019-01-10T03:37:37.968Z,76.52
2019-01-10T03:40:11.793Z,76.41
2019-01-10T03:42:40.192Z,76.71
2019-01-10T03:45:11.346Z,77.36
2019-01-10T03:47:39.725Z,77.71
2019-01-10T03:50:10.617Z,77.80
2019-01-10T03:52:39.063Z,78.05
2019-01-10T03:55:07.777Z,79.56
2019-01-10T03:57:36.214Z,80.21
2019-01-10T04:00:07.731Z,78.58
2019-01-10T04:02:36.259Z,78.86
2019-01-10T04:05:05.342Z,79.15
2019-01-10T04:07:33.789Z,78.33
2019-01-10T04:10:02.141Z,78.23
2019-01-10T04:12:30.687Z,78.70
2019-01-10T04:14:59.198Z,78.16
2019-01-10T04:17:27.577Z,78.38
2019-01-10T04:19:55.916Z,79.13
2019-01-10T04:22:24.303Z,79.29
2019-01-10T04:24:52.718Z,80.02
2019-01-10T04:27:21.180Z,81.03
2019-01-10T04:29:49.610Z,81.29
2019-01-10T04:32:17.979Z,81.56
2019-01-10T04:34:46.323Z,81.34
2019-01-10T04:37:14.712Z,80.99
2019-01-10T04:39:43.057Z,81.82
2019-01-10T04:42:11.445Z,82.62
2019-01-10T04:44:39.853Z,81.95
2019-01-10T04:47:08.209Z,80.78
2019-01-10T04:49:36.592Z,81.11
2019-01-10T04:52:05.006Z,82.53
2019-01-10T04:54:38.208Z,81.70
2019-01-10T04:57:03.530Z,82.00
2019-01-10T04:59:31.941Z,83.75
2019-01-10T05:02:00.254Z,83.20
2019-01-10T05:04:28.641Z,83.73
2019-01-10T05:06:56.990Z,83.79
2019-01-10T05:09:25.382Z,84.96
2019-01-10T05:11:53.729Z,85.84
2019-01-10T05:14:22.118Z,85.75
2019-01-10T05:16:50.468Z,85.63
2019-01-10T05:19:18.852Z,87.20
2019-01-10T05:21:47.200Z,86.82
2019-01-10T05:24:15.654Z,86.42
2019-01-10T05:26:44.064Z,85.90
2019-01-10T05:29:12.439Z,86.87
2019-01-10T05:31:40.852Z,86.65
2019-01-10T05:34:09.234Z,86.02
2019-01-10T05:36:37.631Z,86.48
2019-01-10T05:39:08.078Z,86.96
2019-01-10T05:41:36.565Z,87.88
2019-01-10T05:44:05.029Z,85.73
2019-01-10T05:46:33.446Z,85.00
2019-01-10T05:49:01.903Z,84.66
2019-01-10T05:51:30.271Z,84.85
2019-01-10T05:53:59.533Z,85.41
2019-01-10T05:56:28.061Z,84.21
2019-01-10T05:58:56.430Z,84.46
2019-01-10T06:01:24.870Z,84.73
2019-01-10T06:03:53.748Z,87.57
2019-01-10T06:06:22.317Z,85.87
2019-01-10T06:08:50.757Z,84.55
2019-01-10T06:11:19.140Z,84.45
2019-01-10T06:13:47.489Z,85.00
2019-01-10T06:16:15.949Z,85.47
2019-01-10T06:18:44.367Z,85.53
2019-01-10T06:21:12.752Z,84.73
2019-01-10T06:23:41.188Z,84.01
2019-01-10T06:26:09.647Z,83.78
2019-01-10T06:28:38.041Z,83.09
2019-01-10T06:31:06.482Z,82.74
2019-01-10T06:33:35.004Z,83.65
2019-01-10T06:36:03.453Z,84.62
2019-01-10T06:38:31.876Z,84.64
2019-01-10T06:41:00.333Z,84.08
2019-01-10T06:43:28.692Z,84.60
2019-01-10T06:45:57.074Z,84.61
2019-01-10T06:48:25.448Z,84.31
2019-01-10T06:50:53.828Z,84.87
2019-01-10T06:53:22.251Z,84.69
2019-01-10T06:55:50.692Z,84.16
2019-01-10T06:58:19.053Z,84.14
2019-01-10T07:00:47.504Z,83.83
2019-01-10T07:03:15.922Z,83.96
2019-01-10T07:05:47.791Z,83.87
2019-01-10T07:08:16.217Z,83.39
2019-01-10T07:10:44.566Z,83.39
2019-01-10T07:13:12.947Z,83.85
2019-01-10T07:15:41.462Z,83.99
2019-01-10T07:18:09.920Z,85.36
2019-01-10T07:20:38.508Z,90.84
2019-01-10T07:23:07.044Z,95.13
2019-01-10T07:25:35.465Z,97.04
2019-01-10T07:28:24.792Z,96.90
2019-01-10T07:30:54.597Z,97.67
2019-01-10T07:33:23.061Z,97.79
2019-01-10T07:35:55.713Z,99.51
2019-01-10T07:38:24.111Z,100.00
2019-01-10T07:40:52.480Z,100.00
2019-01-10T07:43:22.197Z,100.00
2019-01-10T07:45:50.625Z,97.99
2019-01-10T07:48:19.022Z,97.26
2019-01-10T07:50:47.456Z,97.80
2019-01-10T07:53:15.908Z,99.14
2019-01-10T07:55:44.335Z,98.65
2019-01-10T07:58:12.737Z,97.13
2019-01-10T08:00:41.112Z,97.59
2019-01-10T08:03:09.633Z,97.34
2019-01-10T08:05:38.073Z,97.14
2019-01-10T08:08:06.897Z,96.96
2019-01-10T08:10:35.424Z,97.32
2019-01-10T08:13:04.119Z,93.68
2019-01-10T08:15:32.534Z,91.03
2019-01-10T08:18:01.057Z,89.73
2019-01-10T08:20:29.406Z,88.54
2019-01-10T08:22:57.793Z,87.82
2019-01-10T08:25:26.400Z,87.00
2019-01-10T08:27:54.920Z,86.87
2019-01-10T08:30:23.819Z,86.46
2019-01-10T08:32:52.276Z,86.11
2019-01-10T08:35:22.623Z,85.55
2019-01-10T08:37:51.138Z,85.29
2019-01-10T08:40:19.717Z,84.63
2019-01-10T08:42:50.271Z,84.80
2019-01-10T08:45:21.735Z,84.59
2019-01-10T08:47:50.656Z,84.73
2019-01-10T08:50:21.505Z,84.30
2019-01-10T08:52:49.970Z,83.91
2019-01-10T08:55:18.489Z,84.02
2019-01-10T08:57:46.911Z,84.10
2019-01-10T09:00:21.140Z,84.27
2019-01-10T09:02:52.838Z,83.96
2019-01-10T09:05:21.675Z,84.07
2019-01-10T09:07:50.315Z,83.79
2019-01-10T09:10:21.499Z,83.76
2019-01-10T09:12:50.346Z,83.67
2019-01-10T09:15:25.304Z,84.76
2019-01-10T09:17:51.736Z,85.20
2019-01-10T09:20:22.909Z,85.87
2019-01-10T09:22:51.678Z,85.04
2019-01-10T09:25:20.592Z,85.10
2019-01-10T09:27:49.265Z,85.13
2019-01-10T09:30:19.410Z,85.93
2019-01-10T09:32:48.281Z,85.24
2019-01-10T09:35:17.667Z,84.37
2019-01-10T09:37:46.296Z,83.37
2019-01-10T09:40:17.450Z,83.47
2019-01-10T09:42:45.939Z,84.38
2019-01-10T09:45:17.508Z,82.96
2019-01-10T09:47:47.720Z,83.43
2019-01-10T09:50:20.929Z,84.23
2019-01-10T09:52:49.808Z,83.94
2019-01-10T09:55:18.668Z,84.27
2019-01-10T09:57:48.884Z,83.72
2019-01-10T10:00:25.908Z,84.41
2019-01-10T10:02:56.342Z,83.29
2019-01-10T10:05:25.209Z,82.93
2019-01-10T10:07:53.695Z,83.58
2019-01-10T10:10:22.541Z,83.09
2019-01-10T10:12:51.362Z,81.83
2019-01-10T10:15:21.023Z,81.31
2019-01-10T10:17:49.895Z,81.84
2019-01-10T10:20:22.037Z,82.18
2019-01-10T10:22:51.778Z,82.45
2019-01-10T10:25:23.145Z,81.69
2019-01-10T10:27:53.371Z,81.50
2019-01-10T10:30:22.492Z,81.48
2019-01-10T10:32:51.607Z,81.57
2019-01-10T10:35:21.343Z,81.69
2019-01-10T10:37:52.930Z,81.17
2019-01-10T10:40:21.677Z,80.82
2019-01-10T10:42:54.294Z,80.40
2019-01-10T10:45:24.886Z,79.86
2019-01-10T10:47:54.092Z,79.60
2019-01-10T10:50:25.552Z,82.01
2019-01-10T10:52:54.046Z,80.62
2019-01-10T10:55:25.295Z,80.23
2019-01-10T10:57:54.187Z,78.81
2019-01-10T11:00:25.312Z,78.50
2019-01-10T11:02:53.703Z,78.80
2019-01-10T11:05:22.449Z,78.15
2019-01-10T11:07:50.907Z,79.55
2019-01-10T11:10:21.236Z,78.94
2019-01-10T11:12:50.086Z,78.17
2019-01-10T11:15:19.518Z,75.98
2019-01-10T11:17:48.343Z,75.47
2019-01-10T11:20:21.871Z,75.24
2019-01-10T11:22:51.416Z,74.88
2019-01-10T11:25:23.288Z,74.81
2019-01-10T11:27:52.037Z,75.40
2019-01-10T11:30:22.148Z,75.09
2019-01-10T11:32:51.011Z,75.15
2019-01-10T11:35:20.286Z,75.50
2019-01-10T11:37:48.873Z,74.40
2019-01-10T11:40:19.275Z,75.04
2019-01-10T11:42:47.902Z,74.73
2019-01-10T11:45:18.534Z,74.63
2019-01-10T11:47:47.024Z,75.52
2019-01-10T11:50:16.614Z,74.91
2019-01-10T11:52:45.243Z,73.83
2019-01-10T11:55:13.938Z,74.32
2019-01-10T11:57:42.623Z,74.04
2019-01-10T12:00:19.772Z,74.05
2019-01-10T12:02:48.219Z,74.91
2019-01-10T12:05:16.652Z,73.91
2019-01-10T12:07:45.099Z,74.12
2019-01-10T12:10:13.591Z,73.46
2019-01-10T12:12:42.372Z,75.24
2019-01-10T12:15:12.171Z,74.06
2019-01-10T12:17:40.627Z,72.88
2019-01-10T12:20:12.016Z,73.04
2019-01-10T12:22:40.553Z,73.80
2019-01-10T12:25:11.451Z,73.56
2019-01-10T12:27:39.903Z,71.95
2019-01-10T12:30:14.598Z,72.65
2019-01-10T12:32:43.003Z,72.22
2019-01-10T12:35:11.426Z,71.86
2019-01-10T12:37:39.818Z,71.51
2019-01-10T12:40:12.692Z,70.67
2019-01-10T12:42:41.190Z,71.74
2019-01-10T12:45:17.754Z,71.45
2019-01-10T12:47:46.516Z,69.72
2019-01-10T12:50:20.310Z,69.28
2019-01-10T12:52:48.775Z,70.05
2019-01-10T12:55:17.210Z,70.15
2019-01-10T12:57:45.626Z,69.95
2019-01-10T13:00:17.125Z,69.90
2019-01-10T13:02:45.547Z,69.86
2019-01-10T13:05:14.930Z,69.75
2019-01-10T13:07:44.593Z,71.52
2019-01-10T13:10:17.490Z,70.94
2019-01-10T13:12:46.501Z,69.73
2019-01-10T13:15:17.772Z,69.58
2019-01-10T13:17:46.250Z,69.87
2019-01-10T13:20:14.776Z,69.65
2019-01-10T13:22:43.199Z,69.40
2019-01-10T13:25:14.185Z,70.46
2019-01-10T13:27:42.755Z,69.52
2019-01-10T13:30:14.314Z,69.84
2019-01-10T13:32:44.830Z,67.86
2019-01-10T13:35:14.292Z,68.66
2019-01-10T13:37:47.674Z,68.40
2019-01-10T13:40:18.255Z,68.46
2019-01-10T13:42:47.078Z,69.19
2019-01-10T13:45:17.923Z,67.21
2019-01-10T13:47:48.731Z,66.84
2019-01-10T13:50:23.110Z,67.48
2019-01-10T13:52:51.964Z,68.01
2019-01-10T13:55:22.592Z,67.99
2019-01-10T13:57:51.695Z,67.97
2019-01-10T14:00:25.463Z,68.83
2019-01-10T14:02:54.454Z,69.81
2019-01-10T14:05:24.869Z,70.72
2019-01-10T14:08:00.454Z,69.87
2019-01-10T14:10:30.681Z,70.03
2019-01-10T14:12:59.702Z,68.67
2019-01-10T14:15:30.006Z,68.00
2019-01-10T14:17:59.041Z,68.25
2019-01-10T14:20:27.720Z,69.07
2019-01-10T14:22:56.752Z,69.33
2019-01-10T14:25:27.361Z,69.92
2019-01-10T14:27:59.628Z,70.15
2019-01-10T14:30:34.483Z,70.72
2019-01-10T14:33:03.974Z,69.96
2019-01-10T14:35:34.711Z,69.78
2019-01-10T14:38:03.548Z,69.31
2019-01-10T14:40:32.471Z,68.88
2019-01-10T14:43:02.727Z,69.25
2019-01-10T14:45:33.495Z,68.96
2019-01-10T14:48:04.862Z,68.92
2019-01-10T14:50:33.392Z,67.97
2019-01-10T14:53:02.281Z,66.88
2019-01-10T14:55:31.039Z,67.56
2019-01-10T14:58:00.185Z,67.53
2019-01-10T15:00:29.121Z,67.81
2019-01-10T15:02:59.299Z,68.36
2019-01-10T15:05:34.303Z,67.96
2019-01-10T15:08:00.314Z,68.49
2019-01-10T15:10:29.052Z,69.17
2019-01-10T15:12:58.994Z,69.41
2019-01-10T15:15:29.114Z,69.92
2019-01-10T15:17:58.054Z,69.84
2019-01-10T15:20:30.180Z,70.17
2019-01-10T15:22:59.125Z,70.73
2019-01-10T15:25:27.947Z,70.75
2019-01-10T15:27:56.680Z,71.18
2019-01-10T15:30:26.951Z,71.09
2019-01-10T15:32:55.497Z,71.23
2019-01-10T15:35:24.586Z,72.21
2019-01-10T15:37:53.375Z,73.45
2019-01-10T15:40:24.649Z,72.83
2019-01-10T15:42:53.175Z,73.45
2019-01-10T15:45:22.142Z,73.45
2019-01-10T15:47:50.842Z,74.78
2019-01-10T15:50:21.567Z,73.42
2019-01-10T15:52:50.782Z,73.53
2019-01-10T15:55:21.277Z,74.37
2019-01-10T15:57:50.513Z,75.30
2019-01-10T16:00:24.621Z,75.41
2019-01-10T16:02:54.973Z,75.59
2019-01-10T16:05:23.994Z,76.33
2019-01-10T16:07:52.912Z,76.72
2019-01-10T16:10:21.597Z,78.54
2019-01-10T16:12:50.562Z,79.60
2019-01-10T16:15:21.526Z,81.22
2019-01-10T16:17:50.262Z,81.16
2019-01-10T16:20:18.875Z,80.56
2019-01-10T16:22:47.800Z,81.07
2019-01-10T16:25:19.573Z,80.84
2019-01-10T16:27:48.226Z,82.05
2019-01-10T16:30:25.034Z,83.97
2019-01-10T16:32:53.556Z,83.55
2019-01-10T16:35:21.972Z,81.46
2019-01-10T16:37:50.919Z,80.38
2019-01-10T16:40:19.758Z,80.37
2019-01-10T16:42:48.181Z,81.51
2019-01-10T16:45:28.916Z,81.44
2019-01-10T16:47:57.346Z,82.76
2019-01-10T16:50:26.241Z,82.51
2019-01-10T16:52:55.092Z,82.29
2019-01-10T16:55:23.839Z,81.94
2019-01-10T16:57:52.728Z,81.84
2019-01-10T17:00:29.603Z,81.94
2019-01-10T17:02:58.440Z,82.56
2019-01-10T17:05:26.977Z,83.06
2019-01-10T17:07:55.444Z,83.38
2019-01-10T17:10:23.906Z,83.86
2019-01-10T17:12:52.345Z,83.85
2019-01-10T17:15:21.555Z,84.08
2019-01-10T17:17:50.022Z,84.31
2019-01-10T17:20:24.102Z,85.22
2019-01-10T17:22:52.468Z,86.05
2019-01-10T17:25:21.141Z,87.08
2019-01-10T17:27:49.834Z,84.82
2019-01-10T17:30:26.509Z,84.09
2019-01-10T17:32:55.588Z,84.05
2019-01-10T17:35:26.437Z,82.41
2019-01-10T17:37:55.840Z,80.41
2019-01-10T17:40:24.641Z,79.51
2019-01-10T17:42:53.313Z,79.23
2019-01-10T17:45:25.533Z,78.58
2019-01-10T17:47:54.070Z,78.33
2019-01-10T17:50:22.806Z,77.41
2019-01-10T17:52:51.896Z,76.91
2019-01-10T17:55:20.385Z,76.68
2019-01-10T17:57:48.817Z,76.10
2019-01-10T18:00:20.528Z,76.10
2019-01-10T18:02:51.002Z,74.78
2019-01-10T18:05:19.337Z,75.47
2019-01-10T18:07:47.823Z,75.22
2019-01-10T18:10:19.579Z,74.61
2019-01-10T18:12:48.554Z,74.71
2019-01-10T18:15:20.072Z,74.83
2019-01-10T18:17:50.664Z,74.37
2019-01-10T18:20:32.780Z,74.04
2019-01-10T18:23:01.276Z,73.97
2019-01-10T18:25:29.692Z,73.79
2019-01-10T18:27:58.149Z,74.50
2019-01-10T18:30:26.594Z,74.08
2019-01-10T18:32:58.794Z,74.27
2019-01-10T18:35:27.752Z,74.79
2019-01-10T18:37:58.345Z,75.86
2019-01-10T18:40:26.788Z,76.55
2019-01-10T18:42:56.025Z,77.76
2019-01-10T18:45:27.564Z,78.28
2019-01-10T18:47:57.188Z,78.81
2019-01-10T18:50:26.093Z,78.48
2019-01-10T18:52:55.014Z,78.85
2019-01-10T18:55:23.959Z,77.53
2019-01-10T18:57:52.432Z,77.16
2019-01-10T19:00:25.533Z,77.92
2019-01-10T19:02:54.059Z,78.55
2019-01-10T19:05:22.487Z,77.96
2019-01-10T19:07:51.107Z,77.36
2019-01-10T19:10:21.849Z,78.27
2019-01-10T19:12:50.844Z,80.61
2019-01-10T19:15:20.030Z,82.79
2019-01-10T19:17:48.572Z,84.35
2019-01-10T19:20:22.668Z,84.79
2019-01-10T19:22:51.199Z,82.33
2019-01-10T19:25:20.131Z,83.00
2019-01-10T19:27:48.598Z,83.70
2019-01-10T19:30:25.413Z,81.73
2019-01-10T19:32:54.655Z,80.97
2019-01-10T19:35:23.010Z,79.88
2019-01-10T19:37:51.439Z,79.12
2019-01-10T19:40:22.440Z,80.82
2019-01-10T19:42:50.949Z,80.35
2019-01-10T19:45:21.083Z,83.34
2019-01-10T19:47:51.615Z,84.37
2019-01-10T19:50:25.090Z,83.86
2019-01-10T19:52:53.597Z,84.50
2019-01-10T19:55:23.117Z,83.84
2019-01-10T19:57:52.923Z,83.84
2019-01-10T20:00:27.302Z,82.82
2019-01-10T20:02:55.864Z,81.33
2019-01-10T20:05:24.370Z,80.75
2019-01-10T20:07:52.874Z,83.35
2019-01-10T20:10:21.500Z,83.89
2019-01-10T20:12:50.318Z,84.49
2019-01-10T20:15:18.889Z,85.38
2019-01-10T20:17:47.395Z,85.57
2019-01-10T20:20:25.149Z,84.94
2019-01-10T20:22:53.742Z,84.37
2019-01-10T20:25:22.211Z,86.65
2019-01-10T20:27:51.586Z,87.81
2019-01-10T20:30:20.048Z,88.31
2019-01-10T20:32:48.477Z,90.20
2019-01-10T20:35:18.322Z,92.06
2019-01-10T20:37:46.820Z,91.80
2019-01-10T20:40:17.266Z,92.21
2019-01-10T20:42:45.690Z,95.37
2019-01-10T20:45:14.618Z,95.23
2019-01-10T20:47:43.314Z,94.14
2019-01-10T20:50:16.184Z,92.39
2019-01-10T20:52:44.609Z,92.28
2019-01-10T20:55:17.318Z,92.90
2019-01-10T20:57:47.551Z,94.23
2019-01-10T21:00:21.899Z,93.63
2019-01-10T21:02:50.908Z,94.42
2019-01-10T21:05:19.381Z,94.96
2019-01-10T21:07:49.454Z,95.76
2019-01-10T21:10:19.909Z,96.54
2019-01-10T21:12:48.465Z,96.05
2019-01-10T21:15:35.558Z,96.14
2019-01-10T21:18:04.064Z,95.78
2019-01-10T21:20:32.459Z,95.50
2019-01-10T21:23:01.079Z,95.33
2019-01-10T21:25:31.161Z,95.27
2019-01-10T21:28:00.773Z,95.65
2019-01-10T21:30:29.226Z,95.86
2019-01-10T21:32:57.608Z,96.15
2019-01-10T21:35:26.073Z,97.28
2019-01-10T21:37:54.429Z,98.09
2019-01-10T21:40:25.658Z,97.76
2019-01-10T21:42:54.323Z,97.00
2019-01-10T21:45:23.804Z,96.75
2019-01-10T21:47:52.451Z,95.96
2019-01-10T21:50:25.839Z,96.70
2019-01-10T21:52:54.688Z,98.12
2019-01-10T21:55:23.970Z,97.72
2019-01-10T21:57:53.582Z,97.85
2019-01-10T22:00:31.649Z,98.42
2019-01-10T22:03:00.784Z,98.89
2019-01-10T22:05:29.249Z,97.94
2019-01-10T22:07:57.714Z,99.40
2019-01-10T22:10:26.087Z,100.00
2019-01-10T22:12:54.708Z,100.00
2019-01-10T22:15:25.232Z,100.00
2019-01-10T22:17:54.238Z,100.00
2019-01-10T22:20:23.317Z,100.00
2019-01-10T22:22:52.832Z,100.00
2019-01-10T22:25:21.576Z,100.00
2019-01-10T22:27:50.807Z,100.00
2019-01-10T22:30:21.881Z,100.00
2019-01-10T22:32:51.732Z,100.00
2019-01-10T22:35:25.485Z,100.00
2019-01-10T22:37:55.654Z,100.00
2019-01-10T22:40:24.702Z,100.00
2019-01-10T22:42:54.551Z,100.00
2019-01-10T22:45:23.932Z,100.00
2019-01-10T22:47:52.920Z,100.00
2019-01-10T22:50:21.670Z,100.00
2019-01-10T22:52:51.162Z,100.00
2019-01-10T22:55:20.130Z,100.00
2019-01-10T22:57:51.902Z,100.00
2019-01-10T23:00:32.232Z,100.00
2019-01-10T23:03:08.066Z,100.00
2019-01-10T23:05:41.869Z,100.00
2019-01-10T23:08:10.685Z,100.00
2019-01-10T23:10:40.060Z,100.00
2019-01-10T23:13:08.686Z,100.00
2019-01-10T23:15:37.578Z,100.00
2019-01-10T23:18:06.983Z,100.00
2019-01-10T23:20:40.257Z,100.00
2019-01-10T23:23:17.363Z,100.00
2019-01-10T23:25:50.480Z,100.00
2019-01-10T23:28:19.432Z,100.00
2019-01-10T23:30:59.173Z,100.00
2019-01-10T23:33:28.681Z,100.00
2019-01-10T23:36:01.991Z,100.00
2019-01-10T23:38:31.118Z,100.00
2019-01-10T23:41:00.343Z,100.00
2019-01-10T23:43:29.346Z,100.00
2019-01-10T23:45:58.301Z,100.00
2019-01-10T23:48:27.523Z,100.00
2019-01-10T23:50:56.390Z,100.00
2019-01-10T23:53:25.387Z,100.00
2019-01-10T23:55:56.315Z,100.00
2019-01-10T23:58:26.507Z,100.00
